Terminal Aerodrome Forecast
Issued by NWS

Current Version | Previous Version | Text Only | Print | Product List | Glossary On
Versions: 1 2 3 4 5 6 7 8 9 10 11 12 13 14 15 16 17 18 19 20 21 22 23 24 25 26 27 28 29 30 31 32 33 34
000 FTUS41 KBOX 182342 TAFACK TAF KACK 182342Z 1900/1924 29012KT P6SM OVC035 FM190900 31011KT P6SM SCT150 FM191400 32012KT P6SM BKN050 FM192100 33008KT P6SM BKN025 FM192300 34008KT P6SM BKN050=

USA.gov is the U.S. government's official web portal to all federal, state and local government web resources and services.